Time;durP1;ratioP1;P1;durP2;ratioP2;P2;SDS_P1;SDS_P2;PMS_P1;PMS_P2;Temp;Humidity;BMP_temperature;BMP_pressure;BME280_temperature;BME280_humidity;BME280_pressure;Samples;Min_cycle;Max_cycle;Signal;HPM_P1;HPM_P2
2023/09/02 00:02:18;;;;;;;2.03;0.80;;;;;;;20.68;60.99;96796.84;10403674;28;20021;-28
2023/09/02 00:07:18;;;;;;;1.73;0.80;;;;;;;20.70;61.22;96791.72;10406552;28;20557;-30
2023/09/02 00:12:18;;;;;;;1.23;0.87;;;;;;;20.69;60.92;96790.88;10408937;28;20064;-28
2023/09/02 00:17:21;;;;;;;4.43;0.93;;;;;;;20.69;61.06;96790.88;10403227;28;20564;-29
2023/09/02 00:22:22;;;;;;;2.25;0.73;;;;;;;20.69;61.12;96793.44;10405357;28;20435;-27
2023/09/02 00:27:22;;;;;;;0.70;0.70;;;;;;;20.69;61.17;96795.13;10412302;28;20025;-29
2023/09/02 00:32:23;;;;;;;2.00;0.80;;;;;;;20.69;61.07;96790.88;10410040;28;20036;-29
2023/09/02 00:37:23;;;;;;;1.23;0.98;;;;;;;20.63;61.04;96780.75;10415762;28;20491;-29
2023/09/02 00:42:26;;;;;;;1.13;0.90;;;;;;;20.70;60.82;96797.66;10412008;28;20037;-29
2023/09/02 00:47:27;;;;;;;1.20;0.80;;;;;;;20.70;60.93;96802.75;10419532;28;20642;-28
2023/09/02 00:52:31;;;;;;;2.03;0.80;;;;;;;20.68;61.00;96801.94;10410072;28;20029;-29
2023/09/02 00:57:33;;;;;;;0.82;0.68;;;;;;;20.70;61.05;96801.88;10419903;28;20043;-28
2023/09/02 01:02:35;;;;;;;1.45;0.80;;;;;;;20.69;60.87;96801.06;10414374;28;20108;-28
2023/09/02 01:07:36;;;;;;;1.30;0.70;;;;;;;20.68;60.83;96796.84;10407241;28;20544;-28
2023/09/02 01:12:36;;;;;;;0.90;0.70;;;;;;;20.69;61.07;96803.59;10408618;28;20029;-28
2023/09/02 01:17:37;;;;;;;1.67;0.70;;;;;;;20.67;60.84;96805.31;10421960;28;20491;-29
2023/09/02 01:22:59;;;;;;;0.73;0.70;;;;;;;20.68;60.93;96809.56;10409155;28;20029;-28
2023/09/02 01:28:07;;;;;;;1.60;0.70;;;;;;;20.69;60.85;96816.31;10404902;28;20068;-29
2023/09/02 01:33:09;;;;;;;1.05;0.70;;;;;;;20.68;60.80;96821.41;10390417;28;20124;-29
2023/09/02 01:38:10;;;;;;;0.80;0.70;;;;;;;20.69;60.95;96816.31;10410588;28;20470;-28
2023/09/02 01:43:10;;;;;;;1.27;0.68;;;;;;;20.65;60.90;96809.56;10411782;28;20029;-29
2023/09/02 01:48:11;;;;;;;1.20;0.80;;;;;;;20.68;60.90;96817.19;10411344;28;20044;-29
2023/09/02 01:53:12;;;;;;;0.73;0.60;;;;;;;20.68;60.91;96823.97;10411920;28;20048;-29
2023/09/02 01:58:12;;;;;;;1.30;1.02;;;;;;;20.66;60.86;96821.44;10410211;28;20034;-29
2023/09/02 02:03:29;;;;;;;1.25;0.70;;;;;;;20.67;60.86;96828.22;10410534;28;20033;-28
2023/09/02 02:08:45;;;;;;;0.88;0.68;;;;;;;20.68;60.67;96831.59;10408415;28;20057;-28
2023/09/02 02:13:49;;;;;;;2.78;0.80;;;;;;;20.67;60.80;96833.31;10410065;28;20029;-27
2023/09/02 02:18:51;;;;;;;1.10;0.93;;;;;;;20.66;60.66;96816.38;10416342;28;20021;-29
2023/09/02 02:23:52;;;;;;;1.30;1.00;;;;;;;20.67;60.71;96818.03;10409141;28;20055;-29
2023/09/02 02:28:52;;;;;;;0.98;0.70;;;;;;;20.67;60.88;96833.31;10409219;28;20491;-29
2023/09/02 02:33:53;;;;;;;0.90;0.70;;;;;;;20.66;60.80;96826.53;10409582;28;20030;-28
2023/09/02 02:38:53;;;;;;;1.30;0.80;;;;;;;20.66;60.87;96828.22;10409360;28;20035;-28
2023/09/02 02:43:53;;;;;;;1.10;0.70;;;;;;;20.66;60.75;96826.53;10407446;28;20044;-28
2023/09/02 02:48:56;;;;;;;3.60;0.80;;;;;;;20.65;60.74;96832.44;10409502;28;20040;-28
2023/09/02 02:53:59;;;;;;;1.42;0.82;;;;;;;20.66;61.23;96831.63;10408002;28;20033;-29
2023/09/02 02:59:00;;;;;;;1.83;0.90;;;;;;;20.66;60.75;96826.53;10407577;28;20029;-28
2023/09/02 03:04:00;;;;;;;1.10;0.80;;;;;;;20.66;60.79;96838.41;10408131;28;20483;-29
2023/09/02 03:09:02;;;;;;;1.40;0.80;;;;;;;20.64;60.73;96833.31;10405003;28;20047;-30
2023/09/02 03:14:06;;;;;;;1.38;0.90;;;;;;;20.67;60.67;96833.31;10413413;28;20112;-30
2023/09/02 03:19:08;;;;;;;1.85;1.10;;;;;;;20.65;60.80;96832.44;10406203;28;20076;-28
2023/09/02 03:24:09;;;;;;;0.82;0.75;;;;;;;20.64;61.41;96837.56;10404875;28;20440;-29
2023/09/02 03:29:09;;;;;;;0.90;0.55;;;;;;;20.64;60.54;96843.50;10410555;28;20060;-29
2023/09/02 03:34:11;;;;;;;1.67;0.85;;;;;;;20.61;60.54;96833.34;10405797;28;20041;-29
2023/09/02 03:39:11;;;;;;;1.50;0.70;;;;;;;20.65;60.64;96842.63;10403116;28;20418;-28
2023/09/02 03:44:12;;;;;;;1.17;0.55;;;;;;;20.67;60.74;96847.72;10404763;28;20037;-28
2023/09/02 03:49:12;;;;;;;1.00;0.67;;;;;;;20.66;60.65;96846.03;10405290;28;20044;-29
2023/09/02 03:54:13;;;;;;;1.00;0.50;;;;;;;20.65;60.62;96842.63;10398726;28;20292;-29
2023/09/02 03:59:15;;;;;;;1.35;0.93;;;;;;;20.65;61.05;96840.09;10401505;28;20099;-30
2023/09/02 04:04:16;;;;;;;1.73;0.90;;;;;;;20.65;60.50;96832.44;10405353;28;20056;-29
2023/09/02 04:09:16;;;;;;;0.77;0.68;;;;;;;20.64;60.61;96833.31;10363206;28;1059726;-29
2023/09/02 04:14:17;;;;;;;1.67;0.88;;;;;;;20.67;60.38;96835.84;10405099;28;20065;-28
2023/09/02 04:19:17;;;;;;;1.57;1.07;;;;;;;20.69;60.62;96818.00;10414572;28;20508;-28
2023/09/02 04:24:18;;;;;;;2.05;0.80;;;;;;;20.71;60.90;96818.88;10404834;28;20303;-28
2023/09/02 04:29:18;;;;;;;1.27;1.07;;;;;;;20.73;60.68;96817.97;10404183;28;20037;-29
2023/09/02 04:34:19;;;;;;;1.33;0.75;;;;;;;20.71;60.18;96818.88;10407312;28;20033;-28
2023/09/02 04:39:22;;;;;;;3.05;1.08;;;;;;;20.72;60.31;96820.56;10410542;28;20028;-29
2023/09/02 04:44:23;;;;;;;1.83;1.20;;;;;;;20.72;60.39;96828.19;10404716;28;20029;-29
2023/09/02 04:49:25;;;;;;;2.73;0.93;;;;;;;20.72;60.43;96826.47;10407100;28;20032;-28
2023/09/02 04:54:25;;;;;;;2.40;0.80;;;;;;;20.69;60.40;96826.50;10404235;28;20303;-28
2023/09/02 04:59:26;;;;;;;4.15;0.80;;;;;;;20.68;60.30;96835.00;10406718;28;20026;-29
2023/09/02 05:04:26;;;;;;;2.10;1.00;;;;;;;20.71;60.14;96850.22;10405234;28;20424;-28
2023/09/02 05:09:27;;;;;;;1.88;0.93;;;;;;;20.73;60.08;96855.31;10403929;28;20025;-28
2023/09/02 05:14:27;;;;;;;1.85;0.90;;;;;;;20.70;60.37;96863.81;10410809;28;20033;-28
2023/09/02 05:19:28;;;;;;;1.10;0.80;;;;;;;20.63;60.31;96858.78;10411117;28;20392;-28
2023/09/02 05:24:29;;;;;;;1.97;1.03;;;;;;;20.68;60.31;96860.44;10421402;28;20363;-28
2023/09/02 05:29:29;;;;;;;1.30;1.00;;;;;;;20.69;60.31;96861.25;10409548;28;20033;-29
2023/09/02 05:34:29;;;;;;;3.20;1.00;;;;;;;20.70;60.30;96868.91;10409337;28;20077;-29
2023/09/02 05:39:30;;;;;;;0.97;0.83;;;;;;;20.67;60.16;96874.03;10407986;28;21162;-28
2023/09/02 05:44:34;;;;;;;1.63;1.48;;;;;;;20.68;60.57;96875.72;10410651;28;20033;-28
2023/09/02 05:49:36;;;;;;;1.88;1.17;;;;;;;20.70;60.52;96883.31;10412593;28;20458;-29
2023/09/02 05:54:36;;;;;;;1.25;0.93;;;;;;;20.71;61.03;96890.13;10408313;28;20041;-29
2023/09/02 05:59:37;;;;;;;2.03;0.90;;;;;;;20.71;60.98;96896.03;10408549;28;20041;-28
2023/09/02 06:04:38;;;;;;;0.83;0.77;;;;;;;20.70;61.34;96904.53;10412162;28;20041;-28
2023/09/02 06:09:38;;;;;;;0.98;0.68;;;;;;;20.72;60.93;96902.81;10409430;28;20037;-29
2023/09/02 06:14:38;;;;;;;1.23;0.90;;;;;;;20.62;61.21;96891.00;10407771;28;20817;-28
2023/09/02 06:19:39;;;;;;;1.40;0.90;;;;;;;20.69;61.18;96896.88;10406881;28;20507;-28
2023/09/02 06:24:39;;;;;;;1.80;0.60;;;;;;;20.70;61.47;96908.75;10410383;28;20040;-29
2023/09/02 06:29:45;;;;;;;1.87;0.87;;;;;;;20.71;61.54;96926.56;10407044;28;20079;-28
2023/09/02 06:34:46;;;;;;;1.58;0.80;;;;;;;20.71;61.36;96920.66;10403163;28;20661;-28
2023/09/02 06:39:46;;;;;;;1.27;0.60;;;;;;;20.70;61.46;96929.09;10410683;28;20029;-29
2023/09/02 06:44:47;;;;;;;1.97;1.23;;;;;;;20.70;61.39;96937.59;10408692;28;20029;-29
2023/09/02 06:49:47;;;;;;;1.00;0.82;;;;;;;20.70;61.57;96939.28;10410286;28;20040;-29
2023/09/02 06:54:50;;;;;;;2.20;0.87;;;;;;;20.73;61.47;96945.19;10406073;28;20127;-29
2023/09/02 06:59:53;;;;;;;1.83;0.93;;;;;;;20.72;61.41;96942.69;10404503;28;20032;-28
2023/09/02 07:04:53;;;;;;;1.08;0.70;;;;;;;20.74;61.04;96946.91;10399537;28;20036;-29
2023/09/02 07:09:54;;;;;;;1.27;1.00;;;;;;;20.74;61.48;96948.59;10404040;28;20043;-28
2023/09/02 07:14:54;;;;;;;1.65;0.90;;;;;;;20.71;61.51;96935.91;10404552;28;20646;-29
2023/09/02 07:19:55;;;;;;;1.10;0.80;;;;;;;20.74;62.37;96951.16;10400145;28;20057;-28
2023/09/02 07:24:55;;;;;;;1.05;0.75;;;;;;;20.74;61.99;96940.97;10408570;28;20036;-29
2023/09/02 07:29:58;;;;;;;0.90;0.65;;;;;;;20.75;61.82;96960.47;10403928;28;20026;-28
2023/09/02 07:34:59;;;;;;;0.80;0.80;;;;;;;20.75;61.35;96952.84;10407981;28;20411;-29
2023/09/02 07:39:59;;;;;;;2.13;0.80;;;;;;;20.74;61.34;96957.09;10404831;28;20033;-28
2023/09/02 07:44:59;;;;;;;1.93;1.00;;;;;;;20.74;61.24;96952.00;10410724;28;20060;-28
2023/09/02 07:50:00;;;;;;;1.90;1.03;;;;;;;20.73;61.17;96952.84;10402771;28;20025;-28
2023/09/02 07:55:00;;;;;;;1.50;0.80;;;;;;;20.71;61.21;96952.00;10404490;28;20030;-28
2023/09/02 08:00:00;;;;;;;2.53;0.93;;;;;;;20.75;61.37;96960.47;10394255;28;20504;-28
2023/09/02 08:05:01;;;;;;;2.30;1.03;;;;;;;20.73;61.26;96957.94;10405714;28;20047;-29
2023/09/02 08:10:01;;;;;;;1.57;0.90;;;;;;;20.74;61.26;96962.19;10407042;28;20040;-28
2023/09/02 08:15:02;;;;;;;1.27;0.93;;;;;;;20.71;61.30;96956.28;10402088;28;20523;-28
2023/09/02 08:20:04;;;;;;;1.70;1.02;;;;;;;20.74;61.40;96956.25;10413886;28;20037;-28
2023/09/02 08:25:05;;;;;;;1.90;1.10;;;;;;;20.75;61.68;96968.97;10406756;28;20037;-30
2023/09/02 08:30:06;;;;;;;2.05;1.00;;;;;;;20.78;61.35;96963.00;10403010;28;20036;-29
2023/09/02 08:35:07;;;;;;;1.30;1.00;;;;;;;20.76;61.67;96955.38;10418593;28;21131;-28
2023/09/02 08:40:08;;;;;;;2.60;1.20;;;;;;;20.74;62.08;96956.25;10403275;28;20033;-28
2023/09/02 08:45:09;;;;;;;3.08;1.75;;;;;;;20.80;65.58;96962.13;10395231;28;20087;-28
2023/09/02 08:50:10;;;;;;;1.83;0.93;;;;;;;20.79;61.78;96952.81;10411575;28;20037;-29
2023/09/02 08:55:11;;;;;;;2.92;1.23;;;;;;;20.81;62.71;96957.91;10413697;28;20037;-28
2023/09/02 09:00:11;;;;;;;3.60;1.30;;;;;;;20.82;61.73;96955.31;10408849;28;20041;-28
2023/09/02 09:05:12;;;;;;;1.60;1.07;;;;;;;20.82;62.14;96960.41;10412866;28;20041;-28
2023/09/02 09:10:15;;;;;;;3.03;1.10;;;;;;;20.81;61.81;96966.38;10410053;28;20124;-29
2023/09/02 09:15:18;;;;;;;11.00;1.35;;;;;;;20.81;62.17;96974.00;10401774;28;20490;-28
2023/09/02 09:20:18;;;;;;;7.75;1.50;;;;;;;20.86;63.37;96979.97;10414097;28;20466;-28
2023/09/02 09:25:20;;;;;;;3.25;1.42;;;;;;;20.87;63.03;96988.47;10410284;28;20087;-28
2023/09/02 09:30:28;;;;;;;2.67;1.55;;;;;;;20.74;63.41;96980.00;10405963;28;20446;-27
2023/09/02 09:35:30;;;;;;;1.92;1.10;;;;;;;20.85;62.81;96985.88;10399566;28;20034;-28
2023/09/02 09:40:38;;;;;;;5.88;1.48;;;;;;;20.85;63.49;96990.09;10411918;28;20504;-29
2023/09/02 09:45:49;;;;;;;1.90;1.23;;;;;;;20.87;62.87;96988.47;10410814;28;20029;-28
2023/09/02 09:50:50;;;;;;;2.22;1.40;;;;;;;20.85;62.14;96990.97;10420146;28;20402;-28
2023/09/02 09:55:51;;;;;;;3.35;1.13;;;;;;;20.82;62.06;96985.88;10416221;28;20060;-27
2023/09/02 10:00:54;;;;;;;1.40;1.30;;;;;;;20.81;63.58;96981.63;10405363;28;20511;-28
2023/09/02 10:05:59;;;;;;;15.93;1.80;;;;;;;20.80;64.07;96972.31;10411799;28;20037;-28
2023/09/02 10:11:18;;;;;;;2.97;1.05;;;;;;;20.83;62.25;96964.69;10412436;28;20028;-29
2023/09/02 10:16:19;;;;;;;3.10;1.27;;;;;;;20.82;62.24;96960.41;10409170;28;20045;-28
2023/09/02 10:21:23;;;;;;;2.30;1.25;;;;;;;20.82;61.99;96957.88;10407407;28;20516;-29
2023/09/02 10:26:27;;;;;;;4.03;1.25;;;;;;;20.83;61.96;96957.06;10407151;28;20034;-28
2023/09/02 10:31:35;;;;;;;2.42;1.30;;;;;;;20.83;61.86;96957.06;10409850;28;20569;-29
2023/09/02 10:36:39;;;;;;;2.83;1.23;;;;;;;20.83;61.82;96946.88;10407483;28;20060;-28
2023/09/02 10:41:41;;;;;;;1.95;0.98;;;;;;;20.84;62.12;96932.44;10416206;28;20064;-28
2023/09/02 10:46:42;;;;;;;2.83;1.40;;;;;;;20.83;61.75;96931.59;10410621;28;20029;-29
2023/09/02 10:51:46;;;;;;;3.97;1.13;;;;;;;20.83;61.98;96926.50;10407309;28;20025;-28
2023/09/02 10:56:46;;;;;;;4.45;0.98;;;;;;;20.82;61.73;96934.16;10400570;28;20417;-28
2023/09/02 11:01:47;;;;;;;2.53;1.67;;;;;;;20.82;61.75;96929.06;10409870;28;20044;-28
2023/09/02 11:07:19;;;;;;;1.42;1.23;;;;;;;20.83;61.86;96936.69;10407823;28;20295;-28
2023/09/02 11:12:20;;;;;;;3.35;1.13;;;;;;;20.84;62.00;96923.09;10381907;28;20041;-28
2023/09/02 11:17:28;;;;;;;5.35;1.88;;;;;;;20.89;64.35;96930.75;10414276;28;20037;-27
2023/09/02 11:22:48;;;;;;;4.82;1.30;;;;;;;20.86;61.80;96940.94;10403972;28;20032;-28
2023/09/02 11:27:48;;;;;;;2.00;1.20;;;;;;;20.78;62.11;96933.31;10398871;28;20431;-29
2023/09/02 11:32:48;;;;;;;16.63;2.70;;;;;;;20.87;63.19;96933.28;10402395;28;20037;-28
2023/09/02 11:37:49;;;;;;;11.77;1.97;;;;;;;20.86;62.40;96935.84;10407229;28;20037;-29
2023/09/02 11:42:53;;;;;;;6.20;1.30;;;;;;;20.82;61.83;96934.97;10400667;28;20108;-28
2023/09/02 11:47:54;;;;;;;5.03;1.02;;;;;;;20.78;61.37;96940.09;10408038;28;20387;-28
2023/09/02 11:52:57;;;;;;;5.15;1.27;;;;;;;20.83;61.04;96951.09;10403714;28;20443;-28
2023/09/02 11:58:06;;;;;;;1.70;0.93;;;;;;;20.82;60.91;96964.69;10405477;28;20038;-28
2023/09/02 12:03:07;;;;;;;3.45;0.93;;;;;;;20.81;60.68;96965.53;10407442;28;21495;-29
2023/09/02 12:08:09;;;;;;;4.75;1.40;;;;;;;20.79;60.78;96960.44;10396771;28;20034;-28
2023/09/02 12:13:10;;;;;;;1.80;0.90;;;;;;;20.80;60.68;96962.13;10399725;28;20029;-29
2023/09/02 12:18:12;;;;;;;5.25;1.20;;;;;;;20.81;61.96;96963.81;10401046;28;20419;-28
2023/09/02 12:23:13;;;;;;;5.60;1.88;;;;;;;20.80;61.64;96967.22;10412483;28;20042;-28
2023/09/02 12:28:15;;;;;;;4.30;0.82;;;;;;;20.76;61.74;96960.47;10396800;28;20454;-30
2023/09/02 12:33:16;;;;;;;7.00;1.20;;;;;;;20.82;61.48;96974.88;10406854;28;20480;-28
2023/09/02 12:38:19;;;;;;;3.60;1.05;;;;;;;20.81;61.20;96975.72;10415120;28;20040;-29
2023/09/02 12:43:27;;;;;;;6.07;1.35;;;;;;;20.77;60.99;96967.25;10409467;28;20108;-29
2023/09/02 12:48:29;;;;;;;2.38;1.10;;;;;;;20.81;61.52;96968.91;10409080;28;20029;-27
2023/09/02 12:53:30;;;;;;;4.25;1.17;;;;;;;20.82;60.88;96985.03;10417218;28;20060;-28
2023/09/02 12:58:30;;;;;;;3.22;1.00;;;;;;;20.69;60.69;96969.00;10409505;28;20665;-29
2023/09/02 13:03:30;;;;;;;2.00;1.10;;;;;;;20.78;60.99;96979.13;10415117;28;20017;-30
2023/09/02 13:08:31;;;;;;;1.97;1.00;;;;;;;20.81;60.89;96984.19;10408211;28;20791;-28
2023/09/02 13:13:31;;;;;;;5.78;1.77;;;;;;;20.81;60.96;96983.34;10404981;28;20483;-28
2023/09/02 13:18:32;;;;;;;2.03;0.87;;;;;;;20.79;60.76;96983.34;10414085;28;20029;-29
2023/09/02 13:23:32;;;;;;;2.67;1.00;;;;;;;20.80;61.00;96971.50;10411037;28;20361;-28
2023/09/02 13:28:36;;;;;;;2.70;0.80;;;;;;;20.80;60.92;96968.94;10408790;28;20513;-29
2023/09/02 13:33:40;;;;;;;1.70;0.95;;;;;;;20.81;60.68;96968.91;10418917;28;20029;-28
2023/09/02 13:38:40;;;;;;;1.40;0.88;;;;;;;20.80;60.52;96986.75;10413357;28;20042;-29
2023/09/02 13:43:40;;;;;;;6.80;1.40;;;;;;;20.81;61.78;96991.81;10406815;28;20037;-28
2023/09/02 13:48:41;;;;;;;3.23;1.10;;;;;;;20.81;62.72;96989.28;10410394;28;20272;-29
2023/09/02 13:53:41;;;;;;;1.52;0.95;;;;;;;20.82;60.89;97005.41;10405963;28;20346;-28
2023/09/02 13:58:42;;;;;;;2.20;1.00;;;;;;;20.84;60.86;97008.78;10416410;28;20491;-28
2023/09/02 14:03:43;;;;;;;1.88;1.00;;;;;;;20.79;60.92;96995.25;10410406;28;20312;-29
2023/09/02 14:08:45;;;;;;;5.43;1.08;;;;;;;20.81;60.99;97002.00;10409446;28;20095;-26
2023/09/02 14:13:49;;;;;;;3.42;0.95;;;;;;;20.77;61.09;96995.25;10409845;28;20061;-28
2023/09/02 14:18:50;;;;;;;2.70;0.93;;;;;;;20.85;60.80;97016.41;10411547;28;20120;-28
2023/09/02 14:23:51;;;;;;;2.73;1.17;;;;;;;20.81;60.92;97009.63;10395909;28;20506;-28
2023/09/02 14:28:51;;;;;;;3.63;1.25;;;;;;;20.85;60.88;97016.41;10404431;28;20037;-29
2023/09/02 14:33:52;;;;;;;1.00;0.70;;;;;;;20.82;61.20;97013.03;10406851;28;20028;-28
2023/09/02 14:38:52;;;;;;;3.57;0.97;;;;;;;20.84;61.14;96999.47;10409820;28;20036;-28
2023/09/02 14:43:52;;;;;;;1.63;1.00;;;;;;;20.84;60.99;97009.63;10408035;28;20031;-29
2023/09/02 14:48:53;;;;;;;10.97;1.73;;;;;;;20.90;62.44;97012.16;10411355;28;20287;-28
2023/09/02 14:53:53;;;;;;;10.63;1.37;;;;;;;20.88;61.00;97010.50;10408832;28;20570;-28
2023/09/02 14:58:54;;;;;;;8.27;1.40;;;;;;;20.85;61.42;97011.31;10401328;28;20396;-29
2023/09/02 15:03:54;;;;;;;3.53;1.15;;;;;;;20.86;61.53;97013.03;10399372;28;20515;-29
2023/09/02 15:08:55;;;;;;;6.90;1.30;;;;;;;20.88;61.44;97011.34;10397999;28;20037;-28
2023/09/02 15:13:55;;;;;;;7.70;2.17;;;;;;;20.87;61.41;97016.44;10401159;28;20295;-29
2023/09/02 15:18:56;;;;;;;6.43;1.50;;;;;;;20.87;61.22;97019.81;10405770;28;20041;-28
2023/09/02 15:24:00;;;;;;;2.03;1.00;;;;;;;20.87;61.30;97017.28;10404443;28;20021;-28
2023/09/02 15:29:11;;;;;;;4.63;1.00;;;;;;;20.87;61.36;97022.38;10407547;28;20048;-28
2023/09/02 15:34:13;;;;;;;11.02;1.17;;;;;;;20.85;61.59;97021.50;10405225;28;20095;-28
2023/09/02 15:39:27;;;;;;;2.13;1.10;;;;;;;20.87;61.44;97029.19;10422757;28;20373;-28
2023/09/02 15:44:27;;;;;;;9.07;2.03;;;;;;;20.84;62.07;97019.81;10420675;28;20120;-29
2023/09/02 15:49:28;;;;;;;10.05;2.53;;;;;;;20.88;63.42;97016.44;10423444;28;20037;-28
2023/09/02 15:54:28;;;;;;;11.27;1.73;;;;;;;20.88;62.34;97013.88;10423363;28;20045;-28
2023/09/02 15:59:29;;;;;;;12.20;2.10;;;;;;;20.88;62.20;97001.16;10421555;28;20381;-29
2023/09/02 16:04:29;;;;;;;13.43;2.00;;;;;;;20.91;62.82;97001.16;10424926;28;20507;-28
2023/09/02 16:09:30;;;;;;;6.32;1.83;;;;;;;20.89;61.82;96992.66;10405223;28;20292;-23
2023/09/02 16:14:30;;;;;;;7.15;1.92;;;;;;;20.88;61.93;97003.69;10405316;28;20037;-30
2023/09/02 16:19:31;;;;;;;7.10;1.60;;;;;;;20.88;61.70;97003.69;10407213;28;20033;-28
2023/09/02 16:24:31;;;;;;;4.33;1.50;;;;;;;20.89;61.72;97007.94;10402837;28;20037;-27
2023/09/02 16:29:35;;;;;;;7.43;1.90;;;;;;;20.87;61.99;96998.63;10404555;28;20103;-27
2023/09/02 16:34:36;;;;;;;5.78;1.63;;;;;;;20.86;61.76;96997.78;10404350;28;20459;-28
2023/09/02 16:39:36;;;;;;;5.22;1.50;;;;;;;20.88;61.71;97007.97;10408295;28;20082;-29
2023/09/02 16:44:36;;;;;;;6.53;1.60;;;;;;;20.90;61.48;97007.06;10405473;28;20033;-29
2023/09/02 16:49:37;;;;;;;7.93;2.47;;;;;;;20.89;61.79;97007.09;10406824;28;20290;-28
2023/09/02 16:54:37;;;;;;;4.72;1.83;;;;;;;20.89;61.69;97013.03;10405798;28;20379;-28
2023/09/02 16:59:38;;;;;;;5.93;2.37;;;;;;;20.87;61.69;97017.28;10404276;28;20038;-28
2023/09/02 17:04:38;;;;;;;4.97;1.88;;;;;;;20.88;61.57;97018.13;10407247;28;20033;-28
2023/09/02 17:09:39;;;;;;;5.82;2.17;;;;;;;20.88;61.71;97031.69;10410037;28;20090;-29
2023/09/02 17:14:39;;;;;;;3.95;1.77;;;;;;;20.89;61.53;97030.00;10411305;28;20048;-28
2023/09/02 17:19:40;;;;;;;6.70;1.77;;;;;;;20.89;61.70;97028.28;10414665;28;20555;-28
2023/09/02 17:24:40;;;;;;;4.07;1.57;;;;;;;20.88;61.66;97034.25;10406726;28;20079;-28
2023/09/02 17:29:40;;;;;;;3.63;1.53;;;;;;;20.89;61.60;97030.84;10410428;28;20029;-28
2023/09/02 17:34:41;;;;;;;5.30;2.28;;;;;;;20.89;62.01;97042.75;10411297;28;20041;-28
2023/09/02 17:39:41;;;;;;;4.73;1.50;;;;;;;20.91;61.65;97051.19;10404794;28;20025;-29
2023/09/02 17:44:45;;;;;;;7.50;1.63;;;;;;;20.90;62.49;97055.44;10411085;28;20290;-28
2023/09/02 17:49:45;;;;;;;2.75;1.70;;;;;;;20.91;61.73;97062.25;10409454;28;20025;-28
2023/09/02 17:54:45;;;;;;;8.00;2.10;;;;;;;20.95;62.71;97070.69;10408408;28;20049;-29
2023/09/02 17:59:46;;;;;;;4.70;1.70;;;;;;;20.95;61.96;97071.53;10408462;28;20037;-28
2023/09/02 18:04:46;;;;;;;5.17;1.87;;;;;;;20.95;61.87;97078.31;10409044;28;20045;-28
2023/09/02 18:09:47;;;;;;;6.10;2.05;;;;;;;20.95;62.09;97091.03;10394152;28;20319;-29
2023/09/02 18:14:47;;;;;;;9.90;2.43;;;;;;;20.96;61.90;97091.06;10397267;28;20072;-29
2023/09/02 18:19:50;;;;;;;2.57;1.50;;;;;;;20.92;61.89;97086.84;10399205;28;20279;-29
2023/09/02 18:24:50;;;;;;;3.13;1.73;;;;;;;20.97;61.76;97091.91;10399691;28;20288;-28
2023/09/02 18:29:50;;;;;;;6.07;2.40;;;;;;;20.96;62.32;97106.31;10405420;28;20033;-28
2023/09/02 18:34:51;;;;;;;4.30;2.33;;;;;;;20.97;62.05;97110.56;10409552;28;20294;-28
2023/09/02 18:39:51;;;;;;;3.88;2.47;;;;;;;20.97;62.33;97122.47;10405116;28;20029;-28
2023/09/02 18:44:52;;;;;;;3.45;1.98;;;;;;;20.97;61.95;97133.47;10406060;28;20034;-29
2023/09/02 18:49:53;;;;;;;7.25;2.35;;;;;;;20.96;62.09;97147.06;10414992;28;20041;-28
2023/09/02 18:54:53;;;;;;;4.57;2.60;;;;;;;20.94;61.96;97158.94;10406310;28;20037;-28
2023/09/02 18:59:54;;;;;;;5.53;1.80;;;;;;;20.94;61.98;97158.09;10402434;28;20099;-28
2023/09/02 19:04:54;;;;;;;5.10;2.50;;;;;;;20.93;61.96;97164.03;10411878;28;20584;-28
2023/09/02 19:09:54;;;;;;;3.80;2.03;;;;;;;20.92;61.83;97169.97;10408913;28;20037;-28
2023/09/02 19:14:55;;;;;;;4.30;1.83;;;;;;;20.91;61.70;97169.16;10405942;28;20300;-28
2023/09/02 19:19:55;;;;;;;3.50;2.10;;;;;;;20.91;62.18;97174.25;10413790;28;20511;-29
2023/09/02 19:24:56;;;;;;;4.83;1.93;;;;;;;20.91;62.00;97176.78;10400030;28;20081;-28
2023/09/02 19:29:56;;;;;;;4.07;1.70;;;;;;;20.90;61.85;97176.78;10400967;28;20033;-29
2023/09/02 19:34:56;;;;;;;3.93;2.53;;;;;;;20.89;62.04;97183.56;10402971;28;20041;-28
2023/09/02 19:39:58;;;;;;;5.00;2.67;;;;;;;20.84;61.92;97182.72;10404976;28;20396;-29
2023/09/02 19:44:58;;;;;;;9.57;4.07;;;;;;;20.90;61.83;97197.97;10401899;28;20041;-29
2023/09/02 19:49:59;;;;;;;4.67;3.07;;;;;;;20.90;61.77;97203.06;10402821;28;20033;-29
2023/09/02 19:54:59;;;;;;;41.93;17.50;;;;;;;20.95;65.71;97198.81;10402967;28;20124;-28
2023/09/02 20:00:01;;;;;;;9.85;3.60;;;;;;;20.93;62.08;97205.63;10401884;28;20120;-28
2023/09/02 20:05:11;;;;;;;10.38;3.70;;;;;;;20.92;61.99;97205.63;10401915;28;20112;-29
2023/09/02 20:10:14;;;;;;;8.13;2.87;;;;;;;20.88;61.87;97214.13;10401431;28;20485;-28
2023/09/02 20:15:15;;;;;;;6.95;4.03;;;;;;;20.90;61.65;97212.41;10399333;28;20322;-29
2023/09/02 20:20:15;;;;;;;11.30;3.20;;;;;;;20.89;61.82;97218.34;10403010;28;20033;-29
2023/09/02 20:25:16;;;;;;;6.90;2.58;;;;;;;20.88;61.58;97217.50;10402108;28;20094;-29
2023/09/02 20:30:16;;;;;;;8.93;3.53;;;;;;;20.88;61.80;97209.03;10399207;28;20108;-28
2023/09/02 20:35:16;;;;;;;6.70;2.93;;;;;;;20.87;61.54;97212.44;10401864;28;20864;-28
2023/09/02 20:40:17;;;;;;;9.80;4.07;;;;;;;20.92;62.19;97221.75;10403657;28;20296;-28
2023/09/02 20:45:18;;;;;;;7.17;3.63;;;;;;;20.95;61.68;97216.66;10409328;28;20041;-28
2023/09/02 20:50:18;;;;;;;8.73;3.80;;;;;;;20.99;61.57;97225.13;10409056;28;20041;-28
2023/09/02 20:55:19;;;;;;;6.47;3.27;;;;;;;21.00;61.82;97226.81;10411043;28;20050;-28
2023/09/02 21:00:19;;;;;;;8.20;3.70;;;;;;;21.03;61.85;97217.47;10406395;28;20674;-29
2023/09/02 21:05:20;;;;;;;8.53;4.10;;;;;;;21.07;61.76;97231.88;10389855;28;20298;-28
2023/09/02 21:10:20;;;;;;;8.30;4.38;;;;;;;21.08;61.79;97217.47;10403311;28;20025;-30
2023/09/02 21:15:21;;;;;;;9.20;4.23;;;;;;;21.06;61.73;97220.00;10404627;28;20052;-29
2023/09/02 21:20:21;;;;;;;7.40;4.80;;;;;;;21.09;61.73;97245.47;10409813;28;20087;-28
2023/09/02 21:25:22;;;;;;;10.13;4.90;;;;;;;21.07;61.93;97239.53;10412493;28;20041;-28
2023/09/02 21:30:22;;;;;;;9.68;4.53;;;;;;;21.08;61.85;97243.78;10408389;28;20729;-29
2023/09/02 21:35:22;;;;;;;12.57;5.10;;;;;;;21.08;62.05;97242.94;10412153;28;20124;-28
2023/09/02 21:40:23;;;;;;;10.13;5.10;;;;;;;21.09;61.67;97240.38;10413898;28;20029;-29
2023/09/02 21:45:23;;;;;;;10.33;5.03;;;;;;;21.08;61.90;97248.88;10411984;28;20037;-28
2023/09/02 21:50:23;;;;;;;10.73;4.80;;;;;;;21.08;62.06;97253.97;10411967;28;20500;-28
2023/09/02 21:55:24;;;;;;;8.27;5.10;;;;;;;21.08;61.92;97248.88;10413346;28;20041;-29
2023/09/02 22:00:24;;;;;;;9.93;5.23;;;;;;;21.08;62.08;97259.06;10408396;28;20535;-27
2023/09/02 22:05:24;;;;;;;10.87;4.80;;;;;;;21.08;62.09;97258.19;10411048;28;20522;-29
2023/09/02 22:10:25;;;;;;;9.33;5.27;;;;;;;21.06;62.02;97254.81;10413126;28;20041;-28
2023/09/02 22:15:25;;;;;;;11.23;4.93;;;;;;;21.08;61.84;97251.44;10406324;28;20033;-28
2023/09/02 22:20:26;;;;;;;9.47;5.27;;;;;;;21.06;61.82;97255.66;10409039;28;20029;-28
2023/09/02 22:25:26;;;;;;;8.97;4.30;;;;;;;21.06;62.19;97245.47;10412309;28;20292;-28
2023/09/02 22:30:26;;;;;;;9.87;4.33;;;;;;;21.05;61.90;97241.22;10407340;28;20087;-29
2023/09/02 22:35:27;;;;;;;8.40;4.47;;;;;;;21.07;62.16;97242.06;10407197;28;20485;-28
2023/09/02 22:40:28;;;;;;;7.10;4.47;;;;;;;21.08;61.79;97248.03;10410424;28;20292;-29
2023/09/02 22:45:28;;;;;;;9.02;4.55;;;;;;;21.06;62.15;97258.19;10409548;28;20389;-29
2023/09/02 22:50:33;;;;;;;7.80;4.40;;;;;;;21.07;62.02;97256.50;10408030;28;20038;-28
2023/09/02 22:55:36;;;;;;;9.65;4.60;;;;;;;21.03;61.94;97230.22;10409817;28;20128;-29
2023/09/02 23:00:36;;;;;;;8.02;4.32;;;;;;;21.05;61.98;97246.31;10404023;28;20506;-29
2023/09/02 23:05:37;;;;;;;7.88;4.35;;;;;;;21.05;62.03;97248.03;10405968;28;20116;-28
2023/09/02 23:10:37;;;;;;;7.30;4.25;;;;;;;21.05;61.85;97256.50;10410063;28;20026;-28
2023/09/02 23:15:37;;;;;;;7.63;4.23;;;;;;;21.05;62.03;97251.41;10403129;28;20499;-27
2023/09/02 23:20:39;;;;;;;8.03;4.40;;;;;;;21.04;61.90;97251.44;10407506;28;20523;-28